Time;durP1;ratioP1;P1;durP2;ratioP2;P2;SDS_P1;SDS_P2;PMS_P1;PMS_P2;Temp;Humidity;BMP_temperature;BMP_pressure;BME280_temperature;BME280_humidity;BME280_pressure;Samples;Min_cycle;Max_cycle;Signal;HPM_P1;HPM_P2
2022/05/19 00:01:01;;;;;;;3.67;3.37;;;;;;;16.36;81.93;98592.59;5104024;28;20577;-71
2022/05/19 00:03:27;;;;;;;3.60;3.30;;;;;;;16.29;82.23;98594.09;5106855;28;20646;-71
2022/05/19 00:05:55;;;;;;;3.47;3.13;;;;;;;16.26;82.95;98598.81;5104480;28;20226;-71
2022/05/19 00:08:22;;;;;;;3.57;3.27;;;;;;;16.25;83.29;98595.31;5103306;28;20297;-72
2022/05/19 00:10:49;;;;;;;3.77;3.20;;;;;;;16.23;83.36;98599.09;5106650;28;20214;-71
2022/05/19 00:13:15;;;;;;;3.83;3.33;;;;;;;16.22;82.61;98592.06;5105267;28;20217;-71
2022/05/19 00:15:41;;;;;;;3.77;2.97;;;;;;;16.20;82.06;98584.19;5104371;28;20218;-72
2022/05/19 00:18:08;;;;;;;4.43;3.40;;;;;;;16.16;81.81;98588.06;5102895;28;20222;-71
2022/05/19 00:20:34;;;;;;;3.37;3.00;;;;;;;16.14;81.85;98591.84;5105909;28;20218;-71
2022/05/19 00:23:02;;;;;;;3.67;3.07;;;;;;;16.13;81.74;98589.31;5106872;28;20210;-71
2022/05/19 00:25:30;;;;;;;3.23;3.03;;;;;;;16.12;81.40;98577.81;5104460;28;20722;-71
2022/05/19 00:27:56;;;;;;;3.53;3.23;;;;;;;16.07;81.25;98580.00;5107851;28;20622;-71
2022/05/19 00:30:23;;;;;;;3.50;3.20;;;;;;;16.03;81.78;98573.25;5102036;28;20213;-71
2022/05/19 00:32:49;;;;;;;3.10;2.90;;;;;;;16.02;82.00;98570.72;5103834;28;20239;-71
2022/05/19 00:35:16;;;;;;;3.20;2.90;;;;;;;15.98;81.89;98570.97;5106741;28;20218;-71
2022/05/19 00:37:42;;;;;;;3.57;3.27;;;;;;;15.97;81.78;98567.59;5107844;28;20211;-71
2022/05/19 00:40:12;;;;;;;3.40;3.10;;;;;;;15.93;81.82;98568.81;5103130;28;20215;-71
2022/05/19 00:42:44;;;;;;;4.00;3.60;;;;;;;15.86;82.17;98565.81;5106088;28;20214;-71
2022/05/19 00:45:13;;;;;;;3.23;2.93;;;;;;;15.79;82.46;98563.78;5104109;28;20214;-71
2022/05/19 00:47:45;;;;;;;3.47;3.10;;;;;;;15.76;82.43;98569.38;5102363;28;20219;-71
2022/05/19 00:50:20;;;;;;;3.37;3.07;;;;;;;15.71;82.46;98556.41;5099979;28;20667;-71
2022/05/19 00:52:48;;;;;;;4.60;3.33;;;;;;;15.64;82.74;98554.41;5105675;28;20627;-71
2022/05/19 00:55:19;;;;;;;6.50;3.63;;;;;;;15.58;83.39;98557.59;5102274;28;20218;-71
2022/05/19 00:57:50;;;;;;;4.20;3.80;;;;;;;15.55;83.84;98549.84;5103775;28;20214;-71
2022/05/19 01:00:19;;;;;;;4.07;3.27;;;;;;;15.49;84.03;98545.00;5105829;28;20210;-71
2022/05/19 01:02:51;;;;;;;3.33;3.13;;;;;;;15.43;84.67;98551.69;5104007;28;20380;-71
2022/05/19 01:05:21;;;;;;;3.33;3.03;;;;;;;15.41;84.83;98547.47;5101854;28;20684;-71
2022/05/19 01:07:55;;;;;;;3.33;3.03;;;;;;;15.42;84.59;98549.16;5103543;28;20467;-71
2022/05/19 01:10:23;;;;;;;3.50;3.17;;;;;;;15.41;84.36;98552.78;5105738;28;20577;-71
2022/05/19 01:12:52;;;;;;;3.17;2.90;;;;;;;15.37;84.35;98546.88;5102208;28;20269;-71
2022/05/19 01:15:19;;;;;;;3.60;3.30;;;;;;;15.34;84.40;98546.28;5101765;28;20207;-71
2022/05/19 01:17:47;;;;;;;3.30;3.10;;;;;;;15.28;84.72;98541.41;5105642;28;20430;-71
2022/05/19 01:20:17;;;;;;;3.60;3.30;;;;;;;15.25;85.07;98546.97;5105571;28;20221;-71
2022/05/19 01:22:52;;;;;;;5.17;3.80;;;;;;;15.21;85.33;98543.72;5102308;28;20667;-71
2022/05/19 01:25:33;;;;;;;4.10;3.70;;;;;;;15.17;86.33;98550.28;5110188;28;20221;-71
2022/05/19 01:28:01;;;;;;;4.13;3.13;;;;;;;15.10;86.88;98538.41;5105918;28;20230;-71
2022/05/19 01:30:28;;;;;;;3.63;3.33;;;;;;;15.04;86.45;98543.41;5102692;28;20206;-70
2022/05/19 01:32:55;;;;;;;4.13;3.10;;;;;;;14.97;87.00;98540.38;5099688;28;20242;-71
2022/05/19 01:35:22;;;;;;;3.17;2.87;;;;;;;14.94;87.01;98531.78;5104712;28;20675;-71
2022/05/19 01:37:49;;;;;;;3.87;3.40;;;;;;;14.89;87.40;98533.97;5105246;28;20214;-71
2022/05/19 01:40:30;;;;;;;3.53;2.97;;;;;;;14.84;87.76;98537.00;5102504;28;20216;-71
2022/05/19 01:43:08;;;;;;;3.70;3.40;;;;;;;14.85;87.24;98537.88;5102225;28;20250;-71
2022/05/19 01:45:49;;;;;;;3.17;2.87;;;;;;;14.78;87.71;98532.19;5105115;28;20213;-71
2022/05/19 01:48:23;;;;;;;3.53;3.17;;;;;;;14.77;87.70;98526.97;5101118;28;20382;-72
2022/05/19 01:50:56;;;;;;;3.30;3.00;;;;;;;14.72;87.81;98526.53;5102187;28;20711;-71
2022/05/19 01:53:28;;;;;;;3.37;3.07;;;;;;;14.67;87.96;98526.03;5100732;28;20238;-71
2022/05/19 01:56:01;;;;;;;3.40;3.10;;;;;;;14.63;88.28;98520.09;5104030;28;20214;-71
2022/05/19 01:58:33;;;;;;;4.20;3.47;;;;;;;14.62;88.33;98536.19;5104378;28;20206;-71
2022/05/19 02:01:03;;;;;;;3.50;3.20;;;;;;;14.58;88.68;98524.09;5098994;28;20229;-71
2022/05/19 02:03:40;;;;;;;3.50;3.20;;;;;;;14.57;88.81;98522.41;5104834;28;20217;-71
2022/05/19 02:06:15;;;;;;;4.17;3.23;;;;;;;14.52;88.42;98524.56;5103244;28;20205;-71
2022/05/19 02:08:46;;;;;;;3.70;3.40;;;;;;;14.45;88.24;98523.34;5109622;28;20320;-70
2022/05/19 02:11:19;;;;;;;3.20;2.90;;;;;;;14.36;87.86;98513.47;5108506;28;20214;-71
2022/05/19 02:13:47;;;;;;;3.63;3.20;;;;;;;14.28;88.13;98526.47;5108859;28;20287;-71
2022/05/19 02:16:16;;;;;;;3.77;3.40;;;;;;;14.22;88.80;98517.19;5109427;28;20456;-71
2022/05/19 02:18:44;;;;;;;3.63;3.20;;;;;;;14.19;89.56;98516.56;5098719;28;20236;-72
2022/05/19 02:21:11;;;;;;;4.37;3.53;;;;;;;14.19;89.73;98511.25;5104684;28;20217;-71
2022/05/19 02:23:41;;;;;;;3.40;3.10;;;;;;;14.17;89.61;98513.16;5101226;28;20221;-71
2022/05/19 02:26:07;;;;;;;4.60;3.13;;;;;;;14.18;89.24;98521.00;5099601;28;20238;-71
2022/05/19 02:28:40;;;;;;;4.40;3.13;;;;;;;14.17;88.71;98523.81;5106161;28;20199;-71
2022/05/19 02:31:08;;;;;;;3.60;3.30;;;;;;;14.14;88.82;98532.00;5101908;28;20214;-71
2022/05/19 02:33:35;;;;;;;3.40;3.10;;;;;;;14.10;89.49;98525.22;5105641;28;20241;-70
2022/05/19 02:36:02;;;;;;;3.27;2.93;;;;;;;14.11;90.33;98514.47;5104518;28;20214;-70
2022/05/19 02:38:29;;;;;;;3.50;3.00;;;;;;;14.16;91.11;98522.09;5101824;28;20221;-71
2022/05/19 02:40:55;;;;;;;3.30;3.07;;;;;;;14.16;91.51;98532.72;5104510;28;20223;-72
2022/05/19 02:43:22;;;;;;;2.90;2.70;;;;;;;14.17;91.35;98519.31;5101753;28;20237;-71
2022/05/19 02:45:48;;;;;;;3.30;3.00;;;;;;;14.14;90.40;98519.56;5109060;28;20206;-72
2022/05/19 02:48:18;;;;;;;4.07;2.87;;;;;;;14.14;89.41;98524.03;5108812;28;20209;-72
2022/05/19 02:50:46;;;;;;;3.53;3.23;;;;;;;14.14;90.14;98518.72;5105223;28;20683;-71
2022/05/19 02:53:12;;;;;;;3.07;2.77;;;;;;;14.14;90.74;98526.69;5101598;28;20609;-71
2022/05/19 02:55:39;;;;;;;3.10;2.80;;;;;;;14.19;90.80;98521.91;5109372;28;20206;-70
2022/05/19 02:58:06;;;;;;;3.10;2.80;;;;;;;14.25;90.13;98529.41;5112049;28;20249;-72
2022/05/19 03:00:32;;;;;;;3.27;2.97;;;;;;;14.27;90.91;98525.66;5110667;28;20210;-71
2022/05/19 03:02:59;;;;;;;3.10;2.80;;;;;;;14.25;91.56;98532.06;5112323;28;20218;-71
2022/05/19 03:05:29;;;;;;;3.20;2.90;;;;;;;14.28;93.10;98531.81;5112945;28;20214;-70
2022/05/19 03:07:56;;;;;;;3.27;2.93;;;;;;;14.27;93.63;98530.97;5108501;28;20214;-72
2022/05/19 03:10:23;;;;;;;4.13;3.07;;;;;;;14.25;94.46;98537.38;5108200;28;20233;-70
2022/05/19 03:12:50;;;;;;;3.73;3.20;;;;;;;14.28;94.01;98527.34;5104328;28;20245;-71
2022/05/19 03:15:17;;;;;;;3.20;2.90;;;;;;;14.29;94.17;98525.53;5104465;28;20242;-70
2022/05/19 03:17:44;;;;;;;3.53;3.10;;;;;;;14.24;93.28;98525.03;5106449;28;20210;-70
2022/05/19 03:20:13;;;;;;;3.40;2.83;;;;;;;14.17;91.98;98519.31;5107910;28;20221;-71
2022/05/19 03:22:41;;;;;;;3.30;3.00;;;;;;;14.13;91.86;98522.34;5104377;28;20221;-72
2022/05/19 03:25:09;;;;;;;4.27;3.33;;;;;;;14.10;90.80;98514.59;5104236;28;20221;-70
2022/05/19 03:27:36;;;;;;;4.20;3.40;;;;;;;13.98;90.91;98512.88;5107611;28;20214;-70
2022/05/19 03:30:04;;;;;;;3.80;3.07;;;;;;;13.94;91.03;98511.44;5102836;28;20221;-71
2022/05/19 03:32:31;;;;;;;4.73;3.87;;;;;;;13.98;90.72;98512.88;5112285;28;20233;-72
2022/05/19 03:34:57;;;;;;;5.30;3.03;;;;;;;13.98;91.16;98523.50;5112404;28;20240;-72
2022/05/19 03:37:24;;;;;;;3.67;3.37;;;;;;;13.96;91.99;98518.31;5112505;28;20210;-70
2022/05/19 03:39:52;;;;;;;4.53;3.70;;;;;;;13.97;92.23;98519.16;5110518;28;20206;-71
2022/05/19 03:42:18;;;;;;;3.80;3.43;;;;;;;14.04;91.19;98521.22;5111738;28;20220;-71
2022/05/19 03:44:45;;;;;;;4.03;3.07;;;;;;;14.04;91.13;98518.56;5110556;28;20260;-71
2022/05/19 03:47:11;;;;;;;3.43;3.13;;;;;;;14.03;91.54;98524.00;5111827;28;20221;-70
2022/05/19 03:49:38;;;;;;;4.00;3.60;;;;;;;14.00;92.00;98522.41;5110247;28;20217;-71
2022/05/19 03:52:05;;;;;;;3.10;2.83;;;;;;;13.97;92.20;98516.50;5111100;28;20574;-70
2022/05/19 03:54:32;;;;;;;3.50;3.20;;;;;;;13.94;91.91;98511.44;5111950;28;20210;-71
2022/05/19 03:57:00;;;;;;;3.03;2.83;;;;;;;13.93;91.92;98520.38;5111936;28;20221;-72
2022/05/19 03:59:26;;;;;;;3.17;2.87;;;;;;;13.93;92.16;98523.03;5110439;28;20595;-71
2022/05/19 04:01:53;;;;;;;3.77;3.37;;;;;;;13.95;92.32;98529.06;5110788;28;20237;-72
2022/05/19 04:04:19;;;;;;;4.00;3.37;;;;;;;13.98;92.21;98523.50;5111875;28;20222;-71
2022/05/19 04:06:46;;;;;;;3.40;3.10;;;;;;;14.06;91.85;98521.13;5111778;28;20214;-71
2022/05/19 04:09:12;;;;;;;4.60;3.10;;;;;;;14.07;91.96;98526.31;5109210;28;20214;-71
2022/05/19 04:11:39;;;;;;;3.23;2.97;;;;;;;14.10;91.49;98535.84;5108709;28;20254;-71
2022/05/19 04:14:07;;;;;;;4.63;3.60;;;;;;;14.13;91.84;98532.97;5111553;28;20237;-71
2022/05/19 04:16:33;;;;;;;3.87;3.40;;;;;;;14.19;92.17;98532.53;5111560;28;20287;-71
2022/05/19 04:19:00;;;;;;;3.60;3.30;;;;;;;14.22;92.62;98537.59;5110984;28;20214;-71
2022/05/19 04:21:26;;;;;;;4.93;3.70;;;;;;;14.33;92.07;98540.28;5110149;28;20210;-71
2022/05/19 04:23:53;;;;;;;3.87;3.50;;;;;;;14.42;91.85;98535.09;5102719;28;20673;-71
2022/05/19 04:26:19;;;;;;;4.23;3.83;;;;;;;14.53;92.21;98542.22;5105180;28;20214;-71
2022/05/19 04:28:46;;;;;;;4.10;3.77;;;;;;;14.70;91.71;98549.72;5105805;28;20233;-71
2022/05/19 04:31:13;;;;;;;4.63;4.03;;;;;;;14.85;91.48;98548.50;5105028;28;20558;-71
2022/05/19 04:33:40;;;;;;;5.07;4.03;;;;;;;14.98;90.53;98543.91;5107758;28;20230;-71
2022/05/19 04:36:07;;;;;;;4.20;3.63;;;;;;;15.12;89.62;98546.28;5103996;28;20221;-71
2022/05/19 04:38:34;;;;;;;3.80;3.50;;;;;;;15.23;89.86;98552.44;5103676;28;20691;-71
2022/05/19 04:41:02;;;;;;;4.07;3.77;;;;;;;15.37;89.53;98556.66;5107425;28;20555;-71
2022/05/19 04:43:29;;;;;;;5.10;4.10;;;;;;;15.54;88.75;98557.00;5107617;28;20258;-71
2022/05/19 04:45:57;;;;;;;4.23;3.83;;;;;;;15.68;88.79;98563.81;5105441;28;20206;-71
2022/05/19 04:48:26;;;;;;;3.67;3.30;;;;;;;15.80;88.15;98570.81;5103919;28;20219;-72
2022/05/19 04:50:54;;;;;;;4.60;3.73;;;;;;;15.95;87.81;98564.22;5107431;28;20210;-72
2022/05/19 04:53:20;;;;;;;4.90;3.57;;;;;;;16.15;86.61;98567.72;5107042;28;20229;-71
2022/05/19 04:55:47;;;;;;;4.67;3.90;;;;;;;16.33;85.73;98566.16;5105144;28;20221;-71
2022/05/19 04:58:14;;;;;;;4.30;3.50;;;;;;;16.47;85.79;98557.84;5103525;28;20207;-71
2022/05/19 05:00:41;;;;;;;5.87;4.20;;;;;;;16.64;85.60;98559.91;5107133;28;20214;-71
2022/05/19 05:03:07;;;;;;;5.27;4.30;;;;;;;16.82;85.81;98563.63;5105688;28;20217;-71
2022/05/19 05:05:36;;;;;;;6.60;4.47;;;;;;;16.99;85.54;98564.81;5105494;28;20577;-71
2022/05/19 05:08:02;;;;;;;4.67;3.90;;;;;;;17.16;85.00;98557.03;5103223;28;20215;-70
2022/05/19 05:10:29;;;;;;;6.23;4.10;;;;;;;17.36;84.24;98568.56;5106583;28;20221;-71
2022/05/19 05:12:56;;;;;;;4.87;4.13;;;;;;;17.61;82.72;98555.56;5106451;28;20241;-70
2022/05/19 05:15:22;;;;;;;5.60;4.03;;;;;;;18.11;80.27;98561.63;5105585;28;20214;-71
2022/05/19 05:17:49;;;;;;;5.53;4.10;;;;;;;18.81;76.23;98567.41;5102980;28;20571;-70
2022/05/19 05:20:15;;;;;;;5.50;4.23;;;;;;;19.50;72.16;98571.34;5105546;28;20226;-71
2022/05/19 05:22:43;;;;;;;4.83;4.43;;;;;;;20.10;69.89;98563.41;5106784;28;20589;-71
2022/05/19 05:25:13;;;;;;;5.47;4.57;;;;;;;20.37;68.11;98563.28;5105493;28;20214;-71
2022/05/19 05:27:39;;;;;;;5.23;4.47;;;;;;;20.48;67.70;98570.25;5102606;28;20225;-70
2022/05/19 05:30:07;;;;;;;5.27;4.77;;;;;;;20.50;67.01;98573.63;5102450;28;20218;-71
2022/05/19 05:32:34;;;;;;;7.60;5.00;;;;;;;20.49;65.92;98575.44;5101619;28;20234;-71
2022/05/19 05:35:01;;;;;;;4.87;4.47;;;;;;;20.42;65.65;98576.25;5102397;28;20211;-72
2022/05/19 05:37:28;;;;;;;8.10;4.63;;;;;;;20.44;65.51;98575.13;5107770;28;20230;-72
2022/05/19 05:39:55;;;;;;;6.63;4.37;;;;;;;20.57;65.39;98563.94;5105375;28;20211;-72
2022/05/19 05:42:22;;;;;;;4.80;4.13;;;;;;;20.85;63.18;98571.66;5102857;28;20218;-72
2022/05/19 05:44:49;;;;;;;4.37;3.80;;;;;;;21.26;61.10;98576.28;5109630;28;20240;-71
2022/05/19 05:47:15;;;;;;;3.90;3.50;;;;;;;21.75;58.96;98563.88;5109840;28;20580;-72
2022/05/19 05:49:42;;;;;;;6.20;3.97;;;;;;;22.30;57.25;98560.38;5107239;28;20209;-72
2022/05/19 05:52:08;;;;;;;3.50;3.20;;;;;;;22.85;55.20;98565.91;5109724;28;20210;-72
2022/05/19 05:54:35;;;;;;;4.87;3.27;;;;;;;23.29;53.62;98567.13;5107921;28;20245;-72
2022/05/19 05:57:03;;;;;;;4.23;3.03;;;;;;;23.64;51.84;98564.75;5109618;28;20222;-71
2022/05/19 05:59:30;;;;;;;3.70;3.30;;;;;;;23.96;50.54;98564.56;5107242;28;20448;-72
2022/05/19 06:01:56;;;;;;;3.93;3.30;;;;;;;24.43;49.93;98567.91;5109175;28;20214;-72
2022/05/19 06:04:23;;;;;;;3.73;3.30;;;;;;;24.89;48.16;98564.13;5109822;28;20245;-72
2022/05/19 06:06:49;;;;;;;3.90;3.10;;;;;;;25.40;46.90;98568.63;5109331;28;20229;-72
2022/05/19 06:09:16;;;;;;;3.57;3.20;;;;;;;25.81;45.35;98577.91;5107912;28;20225;-72
2022/05/19 06:11:43;;;;;;;5.53;3.20;;;;;;;26.21;43.59;98574.59;5109087;28;20249;-73
2022/05/19 06:14:11;;;;;;;3.33;3.10;;;;;;;26.61;43.29;98570.41;5109096;28;20248;-71
2022/05/19 06:16:38;;;;;;;4.03;3.00;;;;;;;26.90;42.66;98565.66;5098310;28;20554;-72
2022/05/19 06:19:05;;;;;;;4.17;3.47;;;;;;;27.10;42.19;98569.31;5104710;28;20577;-72
2022/05/19 06:21:36;;;;;;;3.30;3.00;;;;;;;27.33;41.79;98566.34;5100346;28;20222;-72
2022/05/19 06:24:04;;;;;;;5.07;2.83;;;;;;;27.51;41.26;98572.94;5100803;28;20267;-72
2022/05/19 06:26:33;;;;;;;4.53;3.17;;;;;;;27.72;40.52;98575.50;5104693;28;20214;-71
2022/05/19 06:28:59;;;;;;;3.93;2.90;;;;;;;27.85;40.67;98581.03;5101063;28;20226;-72
2022/05/19 06:31:27;;;;;;;5.47;3.13;;;;;;;28.08;40.50;98584.22;5105518;28;20210;-71
2022/05/19 06:33:54;;;;;;;4.33;3.00;;;;;;;28.21;40.36;98578.81;5109598;28;20248;-71
2022/05/19 06:36:20;;;;;;;3.37;3.07;;;;;;;28.09;40.11;98577.75;5105864;28;20694;-72
2022/05/19 06:38:47;;;;;;;3.00;2.70;;;;;;;27.94;39.77;98588.78;5107870;28;20221;-71
2022/05/19 06:43:57;;;;;;;3.67;2.60;;;;;;;27.84;39.63;98576.63;5107857;28;20520;-72
2022/05/19 06:46:24;;;;;;;4.03;2.60;;;;;;;27.84;39.62;98582.06;5105790;28;20215;-72
2022/05/19 06:48:51;;;;;;;3.17;2.60;;;;;;;27.65;39.83;98585.53;5107638;28;20220;-72
2022/05/19 06:51:18;;;;;;;2.97;2.67;;;;;;;27.34;40.55;98590.59;5109485;28;20221;-72
2022/05/19 06:53:45;;;;;;;2.50;2.30;;;;;;;26.63;41.99;98580.03;5112965;28;20241;-73
2022/05/19 06:56:12;;;;;;;3.20;2.60;;;;;;;25.46;44.81;98578.72;5113230;28;20218;-72
2022/05/19 06:58:39;;;;;;;2.93;2.63;;;;;;;24.46;48.15;98583.78;5110286;28;20596;-72
2022/05/19 07:01:06;;;;;;;3.00;2.53;;;;;;;23.77;50.17;98589.31;5112786;28;20206;-72
2022/05/19 07:03:33;;;;;;;3.40;2.50;;;;;;;23.32;51.50;98586.50;5112979;28;20236;-72
2022/05/19 07:06:01;;;;;;;3.73;2.80;;;;;;;23.04;52.08;98587.06;5112907;28;20210;-72
2022/05/19 07:08:27;;;;;;;3.30;3.00;;;;;;;22.88;53.81;98585.25;5109631;28;20574;-71
2022/05/19 07:10:54;;;;;;;3.30;3.00;;;;;;;22.75;53.21;98582.22;5112659;28;20214;-72
2022/05/19 07:13:21;;;;;;;3.60;2.90;;;;;;;22.74;54.15;98577.84;5111046;28;20237;-72
2022/05/19 07:15:47;;;;;;;4.30;2.83;;;;;;;22.67;54.39;98568.78;5112723;28;20259;-72
2022/05/19 07:18:13;;;;;;;2.97;2.60;;;;;;;22.69;55.53;98577.56;5109790;28;20714;-72
2022/05/19 07:20:47;;;;;;;4.27;2.77;;;;;;;22.74;54.50;98568.94;5105367;28;20210;-72
2022/05/19 07:23:18;;;;;;;3.60;2.70;;;;;;;22.84;55.04;98572.28;5112393;28;20218;-71
2022/05/19 07:25:45;;;;;;;5.17;2.87;;;;;;;22.78;53.65;98576.50;5112522;28;20217;-73
2022/05/19 07:28:12;;;;;;;3.47;2.80;;;;;;;22.73;55.05;98584.25;5105066;28;20198;-72
2022/05/19 07:30:38;;;;;;;3.63;2.93;;;;;;;22.82;55.77;98583.25;5103825;28;20223;-72
2022/05/19 07:33:06;;;;;;;4.40;3.10;;;;;;;22.95;56.03;98583.56;5105540;28;20210;-72
2022/05/19 07:35:34;;;;;;;5.57;3.07;;;;;;;23.01;55.45;98572.09;5107781;28;20225;-73
2022/05/19 07:38:00;;;;;;;3.07;2.77;;;;;;;23.06;54.84;98577.81;5106552;28;20624;-72
2022/05/19 07:40:28;;;;;;;4.20;2.87;;;;;;;23.15;55.98;98573.19;5102167;28;20238;-72
2022/05/19 07:43:35;;;;;;;4.63;2.80;;;;;;;23.27;56.32;98578.09;5104875;28;20238;-74
2022/05/19 07:45:41;;;;;;;3.50;2.90;;;;;;;23.40;55.28;98570.25;5107044;28;20217;-72
2022/05/19 07:48:08;;;;;;;3.73;2.97;;;;;;;23.53;55.97;98570.53;5104105;28;20215;-72
2022/05/19 07:50:35;;;;;;;3.27;2.93;;;;;;;23.69;55.58;98575.88;5104061;28;20224;-72
2022/05/19 07:53:01;;;;;;;3.20;2.90;;;;;;;23.79;55.33;98567.53;5107449;28;20260;-72
2022/05/19 07:55:29;;;;;;;3.57;3.20;;;;;;;23.95;54.47;98579.09;5107315;28;20214;-72
2022/05/19 07:57:56;;;;;;;4.83;2.80;;;;;;;24.03;54.32;98578.22;5104066;28;20708;-72
2022/05/19 08:00:23;;;;;;;4.83;3.17;;;;;;;24.10;53.40;98580.03;5103464;28;20581;-72
2022/05/19 08:02:49;;;;;;;4.80;2.90;;;;;;;24.10;52.64;98580.03;5107179;28;20222;-72
2022/05/19 08:05:16;;;;;;;5.03;2.67;;;;;;;24.13;52.85;98587.75;5107201;28;20236;-71
2022/05/19 08:07:42;;;;;;;3.30;3.00;;;;;;;24.18;53.67;98579.09;5107130;28;20206;-73
2022/05/19 08:15:45;;;;;;;3.40;2.70;;;;;;;24.43;52.83;98567.06;5107789;28;20213;-72
2022/05/19 08:18:14;;;;;;;3.10;2.73;;;;;;;24.53;53.43;98568.53;5107228;28;20210;-72
2022/05/19 08:20:45;;;;;;;5.90;3.13;;;;;;;24.67;52.00;98567.72;5103889;28;20672;-72
2022/05/19 08:23:15;;;;;;;4.80;3.07;;;;;;;24.72;52.74;98568.03;5107343;28;20214;-72
2022/05/19 08:25:41;;;;;;;5.80;2.90;;;;;;;24.83;52.84;98564.88;5107545;28;20217;-72
2022/05/19 08:28:09;;;;;;;4.37;2.80;;;;;;;24.93;52.49;98570.84;5101493;28;20285;-72
2022/05/19 08:30:36;;;;;;;3.23;2.90;;;;;;;25.04;52.45;98570.38;5102359;28;20218;-72
2022/05/19 08:33:05;;;;;;;3.67;3.20;;;;;;;25.15;51.70;98572.63;5104093;28;20218;-72
2022/05/19 08:35:31;;;;;;;4.50;3.10;;;;;;;25.26;51.33;98579.47;5102643;28;20632;-72
2022/05/19 08:37:58;;;;;;;3.60;2.63;;;;;;;25.35;50.86;98571.06;5104249;28;20241;-72
2022/05/19 08:40:25;;;;;;;3.57;2.83;;;;;;;25.46;52.66;98567.88;5106556;28;20218;-72
2022/05/19 08:42:57;;;;;;;3.20;2.90;;;;;;;25.65;52.14;98566.44;5105664;28;20242;-72
2022/05/19 08:45:31;;;;;;;4.07;3.13;;;;;;;25.68;49.03;98556.09;5102247;28;20699;-72
2022/05/19 08:48:04;;;;;;;2.53;2.33;;;;;;;25.79;49.98;98563.69;5105093;28;20797;-71
2022/05/19 08:50:37;;;;;;;2.97;2.77;;;;;;;25.96;49.57;98562.47;5106219;28;20218;-73
2022/05/19 08:53:06;;;;;;;4.57;2.90;;;;;;;26.07;49.39;98558.41;5102558;28;20264;-71
2022/05/19 08:55:33;;;;;;;4.23;2.97;;;;;;;26.19;49.25;98555.00;5102013;28;20230;-73
2022/05/19 08:58:14;;;;;;;3.33;2.90;;;;;;;26.36;50.04;98550.13;5105805;28;20663;-73
2022/05/19 09:00:48;;;;;;;4.83;3.00;;;;;;;26.51;48.45;98551.72;5103233;28;20210;-72
2022/05/19 09:03:20;;;;;;;4.60;3.20;;;;;;;26.59;48.32;98548.91;5107165;28;20592;-72
2022/05/19 09:06:14;;;;;;;4.00;2.92;;;;;;;26.70;49.12;98553.78;5099440;28;20646;-73
2022/05/19 09:08:57;;;;;;;3.63;2.60;;;;;;;26.81;47.94;98553.25;5105817;28;20218;-71
2022/05/19 09:11:29;;;;;;;4.72;3.38;;;;;;;26.89;46.69;98547.66;5105312;28;20214;-72
2022/05/19 09:14:00;;;;;;;4.82;3.17;;;;;;;27.00;47.40;98555.25;5102911;28;20722;-73
2022/05/19 09:16:29;;;;;;;5.20;3.00;;;;;;;27.09;47.77;98554.09;5105133;28;20210;-72
2022/05/19 09:19:02;;;;;;;3.90;3.10;;;;;;;27.15;46.85;98553.28;5106908;28;20216;-72
2022/05/19 09:21:29;;;;;;;3.47;2.90;;;;;;;27.23;46.08;98549.59;5106715;28;20766;-71
2022/05/19 09:23:55;;;;;;;3.65;3.10;;;;;;;27.31;46.48;98552.97;5109014;28;20558;-71
2022/05/19 09:26:47;;;;;;;3.58;2.97;;;;;;;27.33;46.40;98545.47;5106891;28;20211;-71
2022/05/19 09:29:16;;;;;;;3.30;3.00;;;;;;;27.40;45.71;98546.34;5102741;28;20661;-72
2022/05/19 09:31:49;;;;;;;3.00;2.80;;;;;;;27.43;45.04;98554.06;5105794;28;20573;-72
2022/05/19 09:34:16;;;;;;;3.45;2.80;;;;;;;27.45;45.24;98555.56;5102700;28;20306;-72
2022/05/19 09:37:00;;;;;;;3.30;3.00;;;;;;;27.48;44.39;98554.31;5101483;28;20221;-72
2022/05/19 09:39:33;;;;;;;4.82;2.83;;;;;;;27.56;45.48;98541.41;5101090;28;20582;-72
2022/05/19 09:42:05;;;;;;;5.03;3.03;;;;;;;27.77;44.97;98543.19;5104280;28;20214;-72
2022/05/19 09:44:34;;;;;;;4.93;2.92;;;;;;;27.81;44.81;98549.91;5106328;28;20248;-72
2022/05/19 09:47:15;;;;;;;4.40;3.13;;;;;;;27.84;44.11;98554.91;5103040;28;20206;-72
2022/05/19 09:49:44;;;;;;;3.10;2.83;;;;;;;27.87;45.31;98560.75;5105519;28;20225;-71
2022/05/19 09:52:18;;;;;;;3.20;2.90;;;;;;;27.93;44.53;98564.53;5104620;28;20250;-72
2022/05/19 09:54:52;;;;;;;3.70;3.38;;;;;;;28.02;44.56;98564.16;5103958;28;20256;-72
2022/05/19 09:57:26;;;;;;;3.50;3.20;;;;;;;28.10;44.27;98560.41;5103418;28;20211;-72
2022/05/19 09:59:54;;;;;;;3.28;2.97;;;;;;;28.21;43.61;98559.78;5106153;28;20213;-73
2022/05/19 10:02:35;;;;;;;3.45;3.15;;;;;;;28.17;43.09;98561.25;5105730;28;20210;-72
2022/05/19 10:05:19;;;;;;;6.75;3.35;;;;;;;28.14;43.43;98561.66;5102084;28;20218;-72
2022/05/19 10:07:51;;;;;;;4.05;2.88;;;;;;;28.33;43.58;98560.84;5105258;28;20213;-72
2022/05/19 10:10:21;;;;;;;3.10;2.90;;;;;;;28.50;43.03;98559.44;5105137;28;20236;-71
2022/05/19 10:12:48;;;;;;;3.00;2.70;;;;;;;28.53;43.87;98551.69;5102183;28;20225;-72
2022/05/19 10:15:19;;;;;;;3.58;2.97;;;;;;;28.74;44.55;98553.38;5104778;28;20256;-72
2022/05/19 10:18:05;;;;;;;3.28;2.92;;;;;;;28.96;43.56;98557.56;5104203;28;20218;-73
2022/05/19 10:20:37;;;;;;;4.63;3.00;;;;;;;29.07;42.72;98549.59;5098844;28;20222;-72
2022/05/19 10:23:14;;;;;;;3.95;3.55;;;;;;;29.03;42.30;98542.06;5104852;28;20221;-73
2022/05/19 10:26:03;;;;;;;3.67;3.35;;;;;;;29.06;42.72;98547.09;5102967;28;20664;-72
2022/05/19 10:31:59;;;;;;;3.38;3.17;;;;;;;29.13;41.72;98537.84;5104321;28;20263;-72
2022/05/19 10:34:41;;;;;;;2.95;2.75;;;;;;;29.06;41.85;98538.91;5098913;28;20325;-72
2022/05/19 10:37:19;;;;;;;3.65;3.35;;;;;;;29.14;43.61;98531.34;5106844;28;20226;-72
2022/05/19 10:40:11;;;;;;;4.15;3.25;;;;;;;29.32;43.08;98531.50;5108422;28;20217;-72
2022/05/19 10:42:45;;;;;;;3.97;3.20;;;;;;;29.53;42.82;98527.72;5107152;28;20217;-72
2022/05/19 10:45:27;;;;;;;4.45;3.20;;;;;;;29.47;42.59;98525.81;5099830;28;20221;-72
2022/05/19 10:48:26;;;;;;;4.10;3.53;;;;;;;29.50;42.08;98528.94;5109094;28;20220;-72
2022/05/19 10:50:58;;;;;;;3.55;3.25;;;;;;;29.59;42.23;98521.38;5103830;28;20221;-72
2022/05/19 10:53:41;;;;;;;4.57;3.30;;;;;;;29.61;41.85;98508.38;5105452;28;20221;-73
2022/05/19 10:56:23;;;;;;;4.35;3.25;;;;;;;29.69;42.52;98516.28;5099730;28;20244;-72
2022/05/19 10:59:05;;;;;;;3.35;3.05;;;;;;;29.81;42.73;98520.84;5104266;28;20222;-72
2022/05/19 11:01:40;;;;;;;3.30;3.00;;;;;;;29.88;41.33;98512.63;5103750;28;20299;-72
2022/05/19 11:04:39;;;;;;;3.42;3.00;;;;;;;29.86;40.42;98507.41;5101916;28;20214;-74
2022/05/19 11:07:34;;;;;;;3.75;3.28;;;;;;;29.97;41.35;98503.16;5104137;28;20214;-73
2022/05/19 11:10:11;;;;;;;5.82;3.05;;;;;;;29.98;40.36;98505.66;5097029;28;20236;-73
2022/05/19 11:12:47;;;;;;;4.32;3.40;;;;;;;30.05;40.94;98501.00;5100943;28;20207;-73
2022/05/19 11:15:22;;;;;;;3.50;3.20;;;;;;;30.18;41.27;98503.66;5101413;28;20234;-73
2022/05/19 11:18:00;;;;;;;3.20;2.90;;;;;;;30.34;40.97;98499.56;5104919;28;20707;-73
2022/05/19 11:20:31;;;;;;;3.60;3.28;;;;;;;30.44;40.65;98508.09;5108457;28;20292;-73
2022/05/19 11:23:07;;;;;;;3.33;3.05;;;;;;;30.47;40.27;98504.91;5109231;28;20214;-73
2022/05/19 11:28:35;;;;;;;4.32;3.63;;;;;;;30.49;39.95;98505.50;5105014;28;20577;-73
2022/05/19 11:31:10;;;;;;;3.55;3.03;;;;;;;30.51;39.91;98503.41;5105467;28;20217;-74
2022/05/19 11:33:40;;;;;;;4.03;3.67;;;;;;;30.53;39.77;98499.41;5107797;28;20296;-73
2022/05/19 11:36:16;;;;;;;3.58;3.28;;;;;;;30.45;39.90;98490.66;5104955;28;20237;-73
2022/05/19 11:38:53;;;;;;;3.53;3.10;;;;;;;30.53;40.64;98487.63;5103483;28;20697;-74
2022/05/19 11:41:24;;;;;;;4.03;3.35;;;;;;;30.66;40.38;98477.47;5102854;28;20213;-73
2022/05/19 11:43:57;;;;;;;3.83;3.45;;;;;;;30.71;39.61;98476.78;5106608;28;20241;-73
2022/05/19 11:46:30;;;;;;;4.95;3.47;;;;;;;30.71;38.60;98484.97;5103806;28;20579;-73
2022/05/19 11:57:33;;;;;;;3.97;3.15;;;;;;;30.95;39.09;98481.38;5109108;28;20841;-73
2022/05/19 12:00:01;;;;;;;3.63;3.33;;;;;;;31.01;39.35;98481.31;5104974;28;20206;-73
2022/05/19 12:02:33;;;;;;;4.10;3.42;;;;;;;31.07;38.77;98479.56;5110705;28;20260;-73
2022/05/19 12:05:10;;;;;;;3.50;3.20;;;;;;;31.13;37.87;98478.66;5111907;28;20503;-72
2022/05/19 12:07:44;;;;;;;5.95;3.50;;;;;;;30.93;38.37;98470.66;5106905;28;20217;-73
2022/05/19 12:10:19;;;;;;;4.35;3.38;;;;;;;30.78;39.00;98463.91;5108320;28;20205;-73